Time;durP1;ratioP1;P1;durP2;ratioP2;P2;SDS_P1;SDS_P2;PMS_P1;PMS_P2;Temp;Humidity;BMP_temperature;BMP_pressure;BME280_temperature;BME280_humidity;BME280_pressure;Samples;Min_cycle;Max_cycle;Signal;HPM_P1;HPM_P2
2022/06/30 00:00:16;;;;;;;3.97;2.38;;;;;;;;;;5112970;28;20039;-50
2022/06/30 00:02:43;;;;;;;4.45;2.83;;;;;;;;;;5112926;28;20362;-52
2022/06/30 00:05:11;;;;;;;4.38;2.35;;;;;;;;;;5113081;28;20044;-52
2022/06/30 00:07:42;;;;;;;7.35;2.28;;;;;;;;;;5112843;28;20548;-54
2022/06/30 00:10:11;;;;;;;2.92;1.98;;;;;;;;;;5113029;28;20032;-53
2022/06/30 00:12:40;;;;;;;6.78;2.47;;;;;;;;;;5112749;28;20487;-52
2022/06/30 00:15:08;;;;;;;3.65;2.20;;;;;;;;;;5112488;28;20052;-54
2022/06/30 00:17:35;;;;;;;4.07;2.42;;;;;;;;;;5112645;28;20067;-53
2022/06/30 00:20:03;;;;;;;2.95;2.22;;;;;;;;;;5112502;28;20035;-52
2022/06/30 00:22:30;;;;;;;3.72;2.28;;;;;;;;;;5112498;28;20114;-53
2022/06/30 00:24:58;;;;;;;6.72;2.10;;;;;;;;;;5112798;28;20050;-53
2022/06/30 00:27:25;;;;;;;3.70;2.40;;;;;;;;;;5112123;28;20046;-51
2022/06/30 00:29:52;;;;;;;11.93;3.33;;;;;;;;;;5112504;28;20483;-51
2022/06/30 00:32:20;;;;;;;3.55;2.22;;;;;;;;;;5112508;28;20042;-52
2022/06/30 00:34:47;;;;;;;3.38;2.17;;;;;;;;;;5112460;28;20036;-53
2022/06/30 00:37:14;;;;;;;5.95;2.20;;;;;;;;;;5112270;28;20040;-53
2022/06/30 00:39:41;;;;;;;4.88;2.17;;;;;;;;;;5112411;28;20043;-52
2022/06/30 00:42:09;;;;;;;4.32;2.17;;;;;;;;;;5112417;28;20040;-55
2022/06/30 00:44:37;;;;;;;3.38;1.85;;;;;;;;;;5111712;28;20039;-53
2022/06/30 00:47:05;;;;;;;5.95;2.55;;;;;;;;;;5112109;28;20108;-52
2022/06/30 00:49:34;;;;;;;3.22;2.00;;;;;;;;;;5094425;28;20445;-53
2022/06/30 00:52:02;;;;;;;3.03;1.73;;;;;;;;;;5112187;28;20055;-49
2022/06/30 00:54:33;;;;;;;5.70;2.20;;;;;;;;;;5112003;28;20046;-53
2022/06/30 00:57:01;;;;;;;3.08;1.85;;;;;;;;;;5112148;28;20542;-53
2022/06/30 00:59:30;;;;;;;4.30;2.47;;;;;;;;;;5112276;28;20038;-51
2022/06/30 01:02:01;;;;;;;3.70;2.53;;;;;;;;;;5112070;28;20075;-53
2022/06/30 01:04:34;;;;;;;4.00;2.40;;;;;;;;;;5114744;28;20063;-51
2022/06/30 01:07:03;;;;;;;2.90;2.10;;;;;;;;;;5116514;28;20403;-53
2022/06/30 01:15:02;;;;;;;3.05;1.85;;;;;;;;;;5098076;28;20055;-53
2022/06/30 01:17:29;;;;;;;3.95;2.22;;;;;;;;;;5116261;28;20047;-52
2022/06/30 01:19:57;;;;;;;9.30;2.08;;;;;;;;;;5116002;28;20526;-53
2022/06/30 01:22:24;;;;;;;3.03;2.00;;;;;;;;;;5115949;28;20039;-54
2022/06/30 01:24:52;;;;;;;4.22;2.03;;;;;;;;;;5116104;28;20114;-54
2022/06/30 01:27:19;;;;;;;5.53;2.25;;;;;;;;;;5116340;28;20043;-53
2022/06/30 01:29:50;;;;;;;3.60;2.10;;;;;;;;;;5115708;28;20043;-53
2022/06/30 01:32:19;;;;;;;3.97;2.50;;;;;;;;;;5116045;28;20055;-54
2022/06/30 01:34:46;;;;;;;3.28;2.08;;;;;;;;;;5115504;28;20444;-53
2022/06/30 01:37:16;;;;;;;3.72;2.20;;;;;;;;;;5116030;28;20047;-53
2022/06/30 01:39:44;;;;;;;3.05;2.05;;;;;;;;;;5115706;28;20120;-52
2022/06/30 01:42:12;;;;;;;5.03;2.25;;;;;;;;;;5097650;28;20092;-55
2022/06/30 01:44:39;;;;;;;3.22;2.03;;;;;;;;;;5115348;28;20109;-53
2022/06/30 01:47:07;;;;;;;4.53;2.05;;;;;;;;;;5096908;28;20089;-51
2022/06/30 01:49:35;;;;;;;3.75;2.22;;;;;;;;;;5115623;28;20047;-54
2022/06/30 01:52:03;;;;;;;6.53;2.13;;;;;;;;;;5115103;28;20047;-52
2022/06/30 01:54:33;;;;;;;3.20;2.00;;;;;;;;;;5115452;28;20043;-52
2022/06/30 01:57:00;;;;;;;4.63;2.10;;;;;;;;;;5115658;28;20052;-52
2022/06/30 01:59:30;;;;;;;3.60;2.05;;;;;;;;;;5115312;28;20050;-53
2022/06/30 02:01:57;;;;;;;3.60;1.90;;;;;;;;;;5097267;28;20067;-52
2022/06/30 02:07:10;;;;;;;3.55;2.10;;;;;;;;;;5096879;28;20040;-53
2022/06/30 02:09:38;;;;;;;3.58;2.10;;;;;;;;;;5115050;28;20081;-51
2022/06/30 02:14:51;;;;;;;3.90;2.22;;;;;;;;;;5114705;28;20039;-54
2022/06/30 02:17:19;;;;;;;4.50;1.92;;;;;;;;;;5115251;28;20040;-53
2022/06/30 02:19:46;;;;;;;3.35;2.22;;;;;;;;;;5114532;28;20633;-55
2022/06/30 02:22:13;;;;;;;4.35;2.15;;;;;;;;;;5115019;28;20843;-54
2022/06/30 02:24:41;;;;;;;4.72;2.63;;;;;;;;;;5114649;28;20048;-51
2022/06/30 02:27:08;;;;;;;3.28;1.85;;;;;;;;;;5114851;28;20376;-53
2022/06/30 02:29:36;;;;;;;5.72;1.95;;;;;;;;;;5114957;28;20156;-51
2022/06/30 02:32:04;;;;;;;2.67;1.70;;;;;;;;;;5114555;28;20490;-54
2022/06/30 02:34:31;;;;;;;3.47;2.03;;;;;;;;;;5114650;28;20039;-53
2022/06/30 02:36:58;;;;;;;2.78;1.90;;;;;;;;;;5114706;28;20122;-53
2022/06/30 02:39:26;;;;;;;3.05;2.00;;;;;;;;;;5114536;28;20084;-52
2022/06/30 02:41:55;;;;;;;2.53;1.70;;;;;;;;;;5114875;28;20043;-53
2022/06/30 02:44:23;;;;;;;3.35;1.92;;;;;;;;;;5114767;28;20452;-54
2022/06/30 02:46:54;;;;;;;2.30;1.48;;;;;;;;;;5114464;28;20118;-51
2022/06/30 02:49:22;;;;;;;2.95;1.85;;;;;;;;;;5114768;28;20040;-53
2022/06/30 02:51:50;;;;;;;3.22;1.83;;;;;;;;;;5114359;28;20050;-54
2022/06/30 02:54:17;;;;;;;3.05;2.00;;;;;;;;;;5114162;28;20028;-52
2022/06/30 02:56:47;;;;;;;2.92;2.00;;;;;;;;;;5114292;28;20044;-53
2022/06/30 02:59:14;;;;;;;4.05;2.13;;;;;;;;;;5114370;28;20096;-52
2022/06/30 03:01:41;;;;;;;42.20;23.15;;;;;;;;;;5114102;28;20067;-56
2022/06/30 03:04:09;;;;;;;10.70;6.95;;;;;;;;;;5096130;28;20040;-53
2022/06/30 03:06:36;;;;;;;6.50;4.05;;;;;;;;;;5113553;28;20063;-51
2022/06/30 03:09:04;;;;;;;4.93;3.20;;;;;;;;;;5114223;28;20066;-56
2022/06/30 03:11:31;;;;;;;4.93;2.72;;;;;;;;;;5114040;28;20131;-51
2022/06/30 03:14:17;;;;;;;5.88;3.00;;;;;;;;;;5114017;28;20035;-52
2022/06/30 03:16:45;;;;;;;4.22;2.30;;;;;;;;;;5113682;28;20048;-55
2022/06/30 03:19:13;;;;;;;4.65;2.50;;;;;;;;;;5113820;28;20051;-53
2022/06/30 03:21:40;;;;;;;3.08;2.03;;;;;;;;;;5112135;28;20047;-54
2022/06/30 03:24:08;;;;;;;2.30;1.70;;;;;;;;;;5113622;28;20464;-55
2022/06/30 03:26:37;;;;;;;5.40;2.60;;;;;;;;;;5099374;28;20487;-51
2022/06/30 03:29:04;;;;;;;3.35;2.05;;;;;;;;;;5093219;28;20445;-55
2022/06/30 03:31:32;;;;;;;3.28;1.90;;;;;;;;;;5093368;28;20118;-55
2022/06/30 03:34:01;;;;;;;5.28;1.95;;;;;;;;;;5093290;28;20054;-55
2022/06/30 03:36:28;;;;;;;3.25;2.10;;;;;;;;;;5092891;28;20093;-54
2022/06/30 03:38:56;;;;;;;3.35;2.30;;;;;;;;;;5093179;28;20073;-53
2022/06/30 03:41:23;;;;;;;2.92;2.15;;;;;;;;;;5093146;28;20036;-55
2022/06/30 03:43:51;;;;;;;3.38;2.20;;;;;;;;;;5092959;28;20036;-53
2022/06/30 03:46:18;;;;;;;5.32;2.38;;;;;;;;;;5093210;28;20032;-55
2022/06/30 03:48:46;;;;;;;26.85;14.07;;;;;;;;;;5092793;28;20090;-53
2022/06/30 03:51:15;;;;;;;22.15;11.93;;;;;;;;;;5062699;28;20045;-51
2022/06/30 03:53:43;;;;;;;24.55;12.85;;;;;;;;;;5052756;28;20441;-53
2022/06/30 03:56:10;;;;;;;9.10;2.95;;;;;;;;;;5052498;28;20447;-54
2022/06/30 03:58:38;;;;;;;4.25;2.80;;;;;;;;;;5051089;28;20501;-51
2022/06/30 04:01:05;;;;;;;7.82;2.25;;;;;;;;;;5052621;28;20037;-51
2022/06/30 04:03:33;;;;;;;3.03;2.00;;;;;;;;;;5052542;28;20509;-54
2022/06/30 04:06:00;;;;;;;3.17;2.17;;;;;;;;;;5052309;28;20041;-53
2022/06/30 04:08:27;;;;;;;3.25;2.25;;;;;;;;;;5052340;28;20129;-54
2022/06/30 04:10:54;;;;;;;3.00;2.03;;;;;;;;;;5052217;28;20435;-54
2022/06/30 04:13:22;;;;;;;3.55;2.20;;;;;;;;;;5052643;28;20033;-54
2022/06/30 04:15:49;;;;;;;31.70;16.95;;;;;;;;;;5052504;28;20511;-54
2022/06/30 04:18:17;;;;;;;8.35;4.57;;;;;;;;;;5052099;28;20033;-55
2022/06/30 04:20:44;;;;;;;5.22;2.92;;;;;;;;;;5061857;28;20045;-56
2022/06/30 04:23:12;;;;;;;4.30;2.15;;;;;;;;;;5071918;28;20045;-54
2022/06/30 04:25:39;;;;;;;3.33;2.00;;;;;;;;;;5071964;28;20090;-55
2022/06/30 04:28:07;;;;;;;4.80;2.10;;;;;;;;;;5072100;28;20071;-55
2022/06/30 04:33:20;;;;;;;2.88;2.00;;;;;;;;;;5072320;28;20063;-55
2022/06/30 04:35:48;;;;;;;3.35;1.90;;;;;;;;;;5071638;28;20040;-55
2022/06/30 04:38:16;;;;;;;5.63;2.13;;;;;;;;;;5071526;28;20055;-56
2022/06/30 04:43:29;;;;;;;3.67;1.75;;;;;;;;;;5071745;28;20051;-54
2022/06/30 04:45:56;;;;;;;6.22;2.33;;;;;;;;;;5071904;28;20043;-56
2022/06/30 04:48:24;;;;;;;3.53;1.73;;;;;;;;;;5071875;28;20049;-56
2022/06/30 04:50:51;;;;;;;3.20;2.00;;;;;;;;;;5082349;28;20164;-54
2022/06/30 04:53:19;;;;;;;2.97;1.90;;;;;;;;;;5112446;28;20044;-54
2022/06/30 04:55:46;;;;;;;2.90;1.70;;;;;;;;;;5112316;28;20108;-53
2022/06/30 04:58:14;;;;;;;5.32;1.83;;;;;;;;;;5112268;28;20039;-53
2022/06/30 05:00:41;;;;;;;4.88;2.20;;;;;;;;;;5111977;28;20122;-56
2022/06/30 05:03:11;;;;;;;2.90;1.70;;;;;;;;;;5112147;28;20051;-55
2022/06/30 05:05:39;;;;;;;4.00;1.83;;;;;;;;;;5112002;28;20078;-55
2022/06/30 05:08:06;;;;;;;2.58;1.95;;;;;;;;;;5112246;28;20105;-56
2022/06/30 05:10:34;;;;;;;2.95;1.70;;;;;;;;;;5112051;28;20050;-55
2022/06/30 05:13:01;;;;;;;3.25;2.00;;;;;;;;;;5112166;28;20560;-57
2022/06/30 05:15:30;;;;;;;3.28;2.05;;;;;;;;;;5111800;28;20118;-55
2022/06/30 05:17:57;;;;;;;3.38;1.90;;;;;;;;;;5112061;28;20043;-56
2022/06/30 05:20:25;;;;;;;2.60;1.52;;;;;;;;;;5111987;28;20078;-55
2022/06/30 05:22:53;;;;;;;2.40;1.60;;;;;;;;;;5112290;28;20035;-53
2022/06/30 05:28:07;;;;;;;2.53;1.40;;;;;;;;;;5111738;28;20093;-55
2022/06/30 05:30:34;;;;;;;2.83;1.48;;;;;;;;;;5111803;28;20070;-57
2022/06/30 05:33:01;;;;;;;24.90;16.00;;;;;;;;;;5112110;28;20035;-57
2022/06/30 05:35:29;;;;;;;8.27;4.10;;;;;;;;;;5111887;28;20032;-56
2022/06/30 05:37:56;;;;;;;2.72;1.60;;;;;;;;;;5111842;28;20043;-53
2022/06/30 05:40:24;;;;;;;2.58;1.40;;;;;;;;;;5111878;28;20035;-50
2022/06/30 05:42:51;;;;;;;6.25;1.70;;;;;;;;;;5111909;28;20044;-53
2022/06/30 05:45:19;;;;;;;1.60;1.20;;;;;;;;;;5111910;28;20089;-58
2022/06/30 05:47:50;;;;;;;2.40;1.15;;;;;;;;;;5093600;28;20028;-54
2022/06/30 05:50:19;;;;;;;2.63;1.40;;;;;;;;;;5113750;28;20047;-57
2022/06/30 05:52:49;;;;;;;1.75;1.23;;;;;;;;;;5115586;28;20047;-54
2022/06/30 05:55:16;;;;;;;24.77;15.18;;;;;;;;;;5115358;28;20040;-58
2022/06/30 05:57:58;;;;;;;14.52;8.25;;;;;;;;;;5115596;28;20051;-60
2022/06/30 06:00:28;;;;;;;6.10;2.67;;;;;;;;;;5115494;28;20040;-59
2022/06/30 06:02:56;;;;;;;2.22;1.27;;;;;;;;;;5097466;28;20093;-59
2022/06/30 06:05:23;;;;;;;1.25;0.95;;;;;;;;;;5115640;28;20073;-62
2022/06/30 06:07:53;;;;;;;2.28;1.10;;;;;;;;;;5115244;28;20035;-58
2022/06/30 06:10:24;;;;;;;2.53;1.48;;;;;;;;;;5115566;28;20059;-61
2022/06/30 06:12:51;;;;;;;3.03;1.20;;;;;;;;;;5115575;28;20042;-58
2022/06/30 06:15:18;;;;;;;2.00;1.38;;;;;;;;;;5115251;28;20080;-61
2022/06/30 06:17:47;;;;;;;2.08;1.20;;;;;;;;;;5114964;28;20044;-59
2022/06/30 06:20:17;;;;;;;1.83;1.27;;;;;;;;;;5114736;28;20043;-61
2022/06/30 06:22:45;;;;;;;2.53;1.33;;;;;;;;;;5114828;28;20081;-59
2022/06/30 06:25:14;;;;;;;3.33;1.50;;;;;;;;;;5114870;28;20042;-59
2022/06/30 06:27:42;;;;;;;43.22;21.95;;;;;;;;;;5114736;28;20039;-61
2022/06/30 06:30:11;;;;;;;8.73;5.50;;;;;;;;;;5114759;28;20044;-60
2022/06/30 06:32:39;;;;;;;3.25;1.85;;;;;;;;;;5114608;28;20031;-61
2022/06/30 06:35:07;;;;;;;3.05;1.70;;;;;;;;;;5114929;28;20042;-59
2022/06/30 06:37:38;;;;;;;2.63;1.40;;;;;;;;;;5114766;28;20036;-58
2022/06/30 06:40:06;;;;;;;2.35;1.52;;;;;;;;;;5114626;28;20046;-60
2022/06/30 06:42:33;;;;;;;3.30;1.60;;;;;;;;;;5114515;28;20042;-58
2022/06/30 06:45:11;;;;;;;5.68;3.00;;;;;;;;;;5114377;28;20046;-60
2022/06/30 06:47:39;;;;;;;6.38;4.45;;;;;;;;;;5114449;28;20032;-58
2022/06/30 06:50:07;;;;;;;2.95;2.00;;;;;;;;;;5114537;28;20105;-59
2022/06/30 06:52:35;;;;;;;3.85;1.70;;;;;;;;;;5114147;28;20056;-60
2022/06/30 06:55:03;;;;;;;3.50;1.20;;;;;;;;;;5114532;28;20055;-59
2022/06/30 06:57:36;;;;;;;2.25;1.15;;;;;;;;;;5114147;28;20155;-58
2022/06/30 07:00:05;;;;;;;1.70;1.10;;;;;;;;;;5095846;28;20039;-57
2022/06/30 07:02:33;;;;;;;2.83;1.40;;;;;;;;;;5113974;28;20491;-60
2022/06/30 07:05:00;;;;;;;1.70;1.20;;;;;;;;;;5114369;28;20092;-60
2022/06/30 07:07:34;;;;;;;1.17;0.95;;;;;;;;;;5113781;28;20097;-60
2022/06/30 07:10:01;;;;;;;1.50;1.10;;;;;;;;;;5114052;28;20040;-57
2022/06/30 07:12:28;;;;;;;2.70;1.40;;;;;;;;;;5113923;28;20130;-58
2022/06/30 07:14:56;;;;;;;2.83;1.25;;;;;;;;;;5113722;28;20067;-58
2022/06/30 07:17:23;;;;;;;4.82;1.60;;;;;;;;;;5114118;28;20031;-59
2022/06/30 07:19:51;;;;;;;2.35;1.30;;;;;;;;;;5113868;28;20041;-57
2022/06/30 07:22:22;;;;;;;1.80;1.30;;;;;;;;;;5114138;28;20043;-55
2022/06/30 07:24:49;;;;;;;2.28;1.38;;;;;;;;;;5113490;28;20494;-58
2022/06/30 07:27:17;;;;;;;2.30;1.10;;;;;;;;;;5113924;28;20039;-58
2022/06/30 07:29:44;;;;;;;2.60;1.17;;;;;;;;;;5113572;28;20044;-60
2022/06/30 07:32:13;;;;;;;1.85;0.90;;;;;;;;;;5113575;28;20035;-59
2022/06/30 07:34:41;;;;;;;1.75;1.23;;;;;;;;;;5113693;28;20047;-59
2022/06/30 07:37:09;;;;;;;4.40;1.40;;;;;;;;;;5113228;28;20046;-58
2022/06/30 07:39:38;;;;;;;2.20;1.30;;;;;;;;;;5113308;28;20042;-57
2022/06/30 07:42:06;;;;;;;3.33;1.10;;;;;;;;;;5113363;28;20126;-58
2022/06/30 07:44:33;;;;;;;2.20;1.25;;;;;;;;;;5113234;28;20116;-59
2022/06/30 07:47:00;;;;;;;4.60;1.23;;;;;;;;;;5113395;28;20042;-58
2022/06/30 07:49:28;;;;;;;3.80;1.23;;;;;;;;;;5113315;28;20394;-58
2022/06/30 07:51:55;;;;;;;3.03;1.58;;;;;;;;;;5113268;28;20051;-58
2022/06/30 07:54:22;;;;;;;5.32;1.45;;;;;;;;;;5113478;28;20050;-58
2022/06/30 07:56:50;;;;;;;2.65;1.13;;;;;;;;;;5112973;28;20043;-59
2022/06/30 07:59:37;;;;;;;24.98;13.63;;;;;;;;;;5113073;28;20047;-59
2022/06/30 08:02:05;;;;;;;37.45;22.33;;;;;;;;;;5113050;28;20044;-59
2022/06/30 08:04:33;;;;;;;3.30;2.00;;;;;;;;;;5112928;28;20067;-58
2022/06/30 08:07:03;;;;;;;3.58;1.40;;;;;;;;;;5112818;28;20062;-59
2022/06/30 08:09:33;;;;;;;1.95;1.23;;;;;;;;;;5112947;28;20040;-58
2022/06/30 08:12:01;;;;;;;3.33;1.20;;;;;;;;;;5112153;28;20444;-60
2022/06/30 08:14:29;;;;;;;4.38;1.20;;;;;;;;;;5112800;28;20066;-57
2022/06/30 08:16:56;;;;;;;2.42;1.27;;;;;;;;;;5112644;28;20040;-58
2022/06/30 08:19:23;;;;;;;29.52;18.15;;;;;;;;;;5112869;28;20046;-58
2022/06/30 08:21:51;;;;;;;9.32;6.35;;;;;;;;;;5104636;28;20032;-60
2022/06/30 08:24:18;;;;;;;4.53;1.63;;;;;;;;;;5092278;28;20036;-58
2022/06/30 08:26:46;;;;;;;4.00;1.50;;;;;;;;;;5092244;28;20502;-57
2022/06/30 08:29:13;;;;;;;2.20;1.23;;;;;;;;;;5091977;28;20051;-59
2022/06/30 08:31:41;;;;;;;3.45;1.15;;;;;;;;;;5092212;28;20404;-59
2022/06/30 08:34:08;;;;;;;2.90;1.40;;;;;;;;;;5092298;28;20039;-58
2022/06/30 08:36:36;;;;;;;5.78;1.40;;;;;;;;;;5091990;28;20086;-58
2022/06/30 08:39:04;;;;;;;1.92;1.10;;;;;;;;;;5092051;28;20040;-58
2022/06/30 08:44:19;;;;;;;3.92;2.10;;;;;;;;;;5091980;28;20048;-58
2022/06/30 08:46:54;;;;;;;2.78;1.25;;;;;;;;;;5092266;28;20036;-58
2022/06/30 08:49:22;;;;;;;2.47;1.38;;;;;;;;;;5092187;28;20044;-61
2022/06/30 08:51:51;;;;;;;3.78;2.22;;;;;;;;;;5091591;28;20048;-59
2022/06/30 08:54:21;;;;;;;1.90;1.00;;;;;;;;;;5091889;28;20040;-58
2022/06/30 08:56:50;;;;;;;3.40;1.42;;;;;;;;;;5091910;28;20043;-59
2022/06/30 08:59:19;;;;;;;3.83;1.48;;;;;;;;;;5092016;28;20086;-58
2022/06/30 09:01:55;;;;;;;2.20;1.30;;;;;;;;;;5091895;28;20174;-57
2022/06/30 09:04:22;;;;;;;4.40;1.33;;;;;;;;;;5092061;28;20071;-58
2022/06/30 09:06:50;;;;;;;2.47;1.42;;;;;;;;;;5091395;28;20445;-59
2022/06/30 09:09:17;;;;;;;2.03;1.15;;;;;;;;;;5091685;28;20556;-58
2022/06/30 09:11:53;;;;;;;3.03;1.10;;;;;;;;;;5091914;28;20051;-58
2022/06/30 09:14:40;;;;;;;4.32;1.40;;;;;;;;;;5091907;28;20036;-58
2022/06/30 09:17:29;;;;;;;2.30;1.33;;;;;;;;;;5091740;28;20065;-60
2022/06/30 09:20:10;;;;;;;7.15;1.40;;;;;;;;;;5095053;28;20044;-59
2022/06/30 09:22:39;;;;;;;14.77;7.43;;;;;;;;;;5111773;28;20040;-59
2022/06/30 09:25:20;;;;;;;4.35;2.45;;;;;;;;;;5096342;28;20046;-59
2022/06/30 09:27:47;;;;;;;3.45;1.85;;;;;;;;;;5115839;28;20089;-59
2022/06/30 09:30:19;;;;;;;9.38;3.00;;;;;;;;;;5115815;28;20047;-58
2022/06/30 09:32:58;;;;;;;2.22;1.33;;;;;;;;;;5115995;28;20074;-60
2022/06/30 09:35:27;;;;;;;5.28;1.90;;;;;;;;;;5116189;28;20039;-59
2022/06/30 09:38:03;;;;;;;3.55;1.60;;;;;;;;;;5115991;28;20035;-58
2022/06/30 09:40:36;;;;;;;15.50;9.70;;;;;;;;;;5115801;28;20127;-58
2022/06/30 09:43:05;;;;;;;5.07;2.17;;;;;;;;;;5081312;28;20490;-59
2022/06/30 09:45:41;;;;;;;2.90;2.17;;;;;;;;;;5115800;28;20039;-59
2022/06/30 09:48:12;;;;;;;2.33;1.70;;;;;;;;;;5115853;28;20463;-59
2022/06/30 09:50:39;;;;;;;6.82;1.63;;;;;;;;;;5115169;28;20059;-58
2022/06/30 09:53:10;;;;;;;2.75;1.50;;;;;;;;;;5115509;28;20040;-59
2022/06/30 09:55:39;;;;;;;2.58;1.40;;;;;;;;;;5115638;28;20036;-59
2022/06/30 09:58:07;;;;;;;3.90;1.60;;;;;;;;;;5115602;28;20043;-59
2022/06/30 10:00:46;;;;;;;2.95;2.00;;;;;;;;;;5115192;28;20052;-58
2022/06/30 10:03:16;;;;;;;5.60;3.85;;;;;;;;;;5115194;28;20036;-57
2022/06/30 10:05:50;;;;;;;5.25;1.95;;;;;;;;;;5115303;28;20044;-59
2022/06/30 10:08:19;;;;;;;4.32;1.85;;;;;;;;;;5115273;28;20040;-58
2022/06/30 10:10:46;;;;;;;5.53;1.60;;;;;;;;;;5115297;28;20043;-58
2022/06/30 10:13:17;;;;;;;2.60;1.60;;;;;;;;;;5115305;28;20490;-58
2022/06/30 10:15:52;;;;;;;2.90;1.40;;;;;;;;;;5115377;28;20036;-60
2022/06/30 10:18:27;;;;;;;7.15;2.53;;;;;;;;;;5114881;28;20300;-59
2022/06/30 10:20:58;;;;;;;4.05;1.60;;;;;;;;;;5115111;28;20062;-58
2022/06/30 10:23:25;;;;;;;3.50;1.75;;;;;;;;;;5097417;28;20380;-59
2022/06/30 10:25:56;;;;;;;2.95;1.60;;;;;;;;;;5114778;28;20097;-58
2022/06/30 10:28:26;;;;;;;3.22;1.58;;;;;;;;;;5115131;28;20044;-57
2022/06/30 10:31:13;;;;;;;3.25;1.65;;;;;;;;;;5114929;28;20043;-59
2022/06/30 10:34:02;;;;;;;4.18;1.60;;;;;;;;;;5114998;28;20092;-59
2022/06/30 10:36:31;;;;;;;4.10;1.70;;;;;;;;;;5113949;28;20499;-59
2022/06/30 10:39:19;;;;;;;37.10;26.77;;;;;;;;;;5114506;28;20088;-57
2022/06/30 10:41:48;;;;;;;4.35;2.63;;;;;;;;;;5114607;28;20036;-58
2022/06/30 10:44:25;;;;;;;3.22;1.45;;;;;;;;;;5114601;28;20047;-59
2022/06/30 10:46:56;;;;;;;4.32;1.42;;;;;;;;;;5114431;28;20093;-58
2022/06/30 10:49:26;;;;;;;4.85;2.10;;;;;;;;;;5113831;28;20088;-57
2022/06/30 10:51:57;;;;;;;3.85;1.73;;;;;;;;;;5114662;28;20052;-59
2022/06/30 10:54:33;;;;;;;4.22;1.70;;;;;;;;;;5114518;28;20035;-57
2022/06/30 10:57:01;;;;;;;4.78;1.73;;;;;;;;;;5114591;28;20047;-59
2022/06/30 10:59:36;;;;;;;4.45;1.80;;;;;;;;;;5096317;28;20039;-57
2022/06/30 11:02:15;;;;;;;2.42;1.50;;;;;;;;;;5095854;28;20075;-58
2022/06/30 11:04:49;;;;;;;6.50;1.73;;;;;;;;;;5114137;28;20036;-58
2022/06/30 11:07:24;;;;;;;2.58;1.42;;;;;;;;;;5114081;28;20047;-57
2022/06/30 11:09:52;;;;;;;2.08;1.45;;;;;;;;;;5114204;28;20730;-59
2022/06/30 11:12:23;;;;;;;2.63;1.60;;;;;;;;;;5113728;28;20097;-56
2022/06/30 11:14:53;;;;;;;4.72;1.30;;;;;;;;;;5113337;28;20495;-57
2022/06/30 11:17:29;;;;;;;2.30;1.55;;;;;;;;;;5113871;28;20051;-56
2022/06/30 11:20:04;;;;;;;4.25;1.55;;;;;;;;;;5113818;28;20040;-59
2022/06/30 11:22:32;;;;;;;1.73;1.50;;;;;;;;;;5113808;28;20042;-59
2022/06/30 11:25:04;;;;;;;2.20;1.50;;;;;;;;;;5113836;28;20031;-58
2022/06/30 11:27:38;;;;;;;4.95;1.77;;;;;;;;;;5113744;28;20042;-57
2022/06/30 11:30:11;;;;;;;3.22;1.20;;;;;;;;;;5113523;28;20123;-58
2022/06/30 11:32:39;;;;;;;4.13;1.55;;;;;;;;;;5113322;28;20074;-59
2022/06/30 11:35:07;;;;;;;16.13;10.75;;;;;;;;;;5113610;28;20043;-57
2022/06/30 11:37:34;;;;;;;4.72;1.95;;;;;;;;;;5113485;28;20463;-58
2022/06/30 11:40:05;;;;;;;2.90;1.40;;;;;;;;;;5113603;28;20031;-58
2022/06/30 11:42:33;;;;;;;3.30;1.55;;;;;;;;;;5113386;28;20039;-58
2022/06/30 11:45:00;;;;;;;3.97;1.48;;;;;;;;;;5113613;28;20031;-58
2022/06/30 11:47:29;;;;;;;3.97;1.60;;;;;;;;;;5112417;28;20043;-58
2022/06/30 11:49:58;;;;;;;2.53;1.52;;;;;;;;;;5113379;28;20047;-58
2022/06/30 11:52:29;;;;;;;4.60;1.40;;;;;;;;;;5113112;28;20039;-57
2022/06/30 11:55:05;;;;;;;3.95;2.40;;;;;;;;;;5113136;28;20040;-57
2022/06/30 11:57:38;;;;;;;3.05;1.67;;;;;;;;;;5113050;28;20039;-56
2022/06/30 12:00:09;;;;;;;3.42;1.55;;;;;;;;;;5113429;28;20114;-58
2022/06/30 12:02:38;;;;;;;2.70;1.77;;;;;;;;;;5112882;28;20453;-58
2022/06/30 12:05:09;;;;;;;2.78;1.88;;;;;;;;;;5113078;28;20050;-59
2022/06/30 12:07:37;;;;;;;2.00;1.50;;;;;;;;;;5113121;28;20092;-57
2022/06/30 12:10:09;;;;;;;6.30;1.80;;;;;;;;;;5112905;28;20047;-58
2022/06/30 12:12:38;;;;;;;2.72;1.70;;;;;;;;;;5112716;28;20475;-58
2022/06/30 12:15:08;;;;;;;2.03;1.38;;;;;;;;;;5112837;28;20059;-57
2022/06/30 12:17:40;;;;;;;1.92;1.48;;;;;;;;;;5113049;28;20050;-57
2022/06/30 12:20:10;;;;;;;4.22;1.50;;;;;;;;;;5112699;28;20040;-57
2022/06/30 12:22:43;;;;;;;2.78;1.83;;;;;;;;;;5112485;28;20043;-56
2022/06/30 12:25:11;;;;;;;17.80;13.52;;;;;;;;;;5112583;28;20498;-59
2022/06/30 12:27:42;;;;;;;2.83;1.52;;;;;;;;;;5112763;28;20453;-58
2022/06/30 12:30:21;;;;;;;3.08;1.60;;;;;;;;;;5112284;28;20055;-57
2022/06/30 12:32:54;;;;;;;3.40;1.70;;;;;;;;;;5112289;28;20050;-58
2022/06/30 12:35:25;;;;;;;2.15;1.50;;;;;;;;;;5112537;28;20380;-57
2022/06/30 12:37:56;;;;;;;3.00;1.67;;;;;;;;;;5112692;28;20067;-58
2022/06/30 12:40:28;;;;;;;2.58;1.30;;;;;;;;;;5112485;28;20043;-58
2022/06/30 12:42:58;;;;;;;1.42;1.17;;;;;;;;;;5112501;28;20044;-59
2022/06/30 12:45:35;;;;;;;2.10;1.40;;;;;;;;;;5112541;28;20079;-59
2022/06/30 12:48:07;;;;;;;25.35;16.77;;;;;;;;;;5112617;28;20072;-57
2022/06/30 12:50:37;;;;;;;3.58;2.25;;;;;;;;;;5111305;28;20485;-58
2022/06/30 12:53:21;;;;;;;2.13;1.48;;;;;;;;;;5112338;28;20426;-58
2022/06/30 12:55:56;;;;;;;3.15;1.50;;;;;;;;;;5112316;28;20039;-58
2022/06/30 12:58:23;;;;;;;4.70;1.55;;;;;;;;;;5114763;28;20113;-58
2022/06/30 13:00:57;;;;;;;3.72;1.35;;;;;;;;;;5118978;28;20114;-59
2022/06/30 13:03:25;;;;;;;3.25;1.48;;;;;;;;;;5119080;28;20043;-55
2022/06/30 13:05:53;;;;;;;2.95;1.48;;;;;;;;;;5119167;28;20041;-57
2022/06/30 13:08:20;;;;;;;3.35;1.55;;;;;;;;;;5118591;28;20042;-57
2022/06/30 13:11:05;;;;;;;2.40;1.48;;;;;;;;;;5118884;28;20055;-58
2022/06/30 13:13:32;;;;;;;2.58;1.58;;;;;;;;;;5119077;28;20063;-57
2022/06/30 13:16:00;;;;;;;2.92;1.42;;;;;;;;;;5118980;28;20044;-58
2022/06/30 13:18:27;;;;;;;5.13;1.20;;;;;;;;;;5119041;28;20441;-57
2022/06/30 13:20:54;;;;;;;1.65;1.25;;;;;;;;;;5119034;28;20068;-57
2022/06/30 13:23:21;;;;;;;2.10;1.30;;;;;;;;;;5119099;28;20088;-58
2022/06/30 13:25:49;;;;;;;2.15;1.25;;;;;;;;;;5118883;28;20104;-58
2022/06/30 13:28:16;;;;;;;1.67;1.20;;;;;;;;;;5118769;28;20398;-59
2022/06/30 13:30:43;;;;;;;2.47;1.60;;;;;;;;;;5118671;28;20486;-59
2022/06/30 13:33:12;;;;;;;3.17;1.60;;;;;;;;;;5119084;28;20070;-57
2022/06/30 13:35:39;;;;;;;5.10;1.48;;;;;;;;;;5118446;28;20043;-58
2022/06/30 13:38:07;;;;;;;2.47;1.30;;;;;;;;;;5118758;28;20036;-58
2022/06/30 13:40:37;;;;;;;9.07;6.70;;;;;;;;;;5118434;28;20040;-57
2022/06/30 13:43:05;;;;;;;3.75;1.70;;;;;;;;;;5118746;28;20054;-59
2022/06/30 13:45:34;;;;;;;1.92;1.13;;;;;;;;;;5118596;28;20036;-57
2022/06/30 13:48:01;;;;;;;1.65;1.30;;;;;;;;;;5118615;28;20051;-58
2022/06/30 13:50:29;;;;;;;1.55;1.13;;;;;;;;;;5118299;28;20054;-58
2022/06/30 13:52:56;;;;;;;3.70;1.52;;;;;;;;;;5118767;28;20514;-58
2022/06/30 13:55:25;;;;;;;1.77;1.40;;;;;;;;;;5118801;28;20509;-59
2022/06/30 13:57:53;;;;;;;2.47;1.30;;;;;;;;;;5118740;28;20413;-58
2022/06/30 14:00:20;;;;;;;1.80;1.42;;;;;;;;;;5118527;28;20441;-59
2022/06/30 14:02:47;;;;;;;2.53;1.60;;;;;;;;;;5118158;28;20092;-58
2022/06/30 14:05:14;;;;;;;3.05;1.40;;;;;;;;;;5118692;28;20042;-59
2022/06/30 14:07:42;;;;;;;3.72;2.63;;;;;;;;;;5118497;28;20491;-53
2022/06/30 14:10:10;;;;;;;4.75;2.38;;;;;;;;;;5116110;28;20050;-58
2022/06/30 14:12:38;;;;;;;1.65;1.00;;;;;;;;;;5096714;28;20841;-58
2022/06/30 14:15:10;;;;;;;3.60;1.33;;;;;;;;;;5115132;28;20036;-59
2022/06/30 14:17:39;;;;;;;1.45;1.20;;;;;;;;;;5097718;28;20072;-58
2022/06/30 14:20:08;;;;;;;2.38;1.42;;;;;;;;;;5114632;28;20494;-58
2022/06/30 14:22:36;;;;;;;2.95;1.33;;;;;;;;;;5114709;28;20105;-58
2022/06/30 14:25:05;;;;;;;2.65;1.45;;;;;;;;;;5114985;28;20085;-59
2022/06/30 14:27:33;;;;;;;1.92;1.33;;;;;;;;;;5114814;28;20481;-58
2022/06/30 14:30:02;;;;;;;2.15;1.33;;;;;;;;;;5114666;28;20031;-58
2022/06/30 14:32:29;;;;;;;3.22;1.52;;;;;;;;;;5114738;28;20036;-59
2022/06/30 14:34:57;;;;;;;2.40;1.40;;;;;;;;;;5114620;28;20040;-59
2022/06/30 14:37:25;;;;;;;2.47;1.40;;;;;;;;;;5115228;28;20098;-58
2022/06/30 14:39:54;;;;;;;1.50;1.30;;;;;;;;;;5114881;28;20048;-59
2022/06/30 14:45:10;;;;;;;4.40;1.80;;;;;;;;;;5113800;28;20045;-58
2022/06/30 14:47:39;;;;;;;3.50;1.63;;;;;;;;;;5114753;28;20054;-58
2022/06/30 14:50:08;;;;;;;5.68;3.53;;;;;;;;;;5096305;28;20043;-58
2022/06/30 14:52:42;;;;;;;3.70;1.92;;;;;;;;;;5113882;28;20070;-58
2022/06/30 14:55:10;;;;;;;2.40;1.63;;;;;;;;;;5114486;28;20042;-58
2022/06/30 14:57:37;;;;;;;2.97;1.80;;;;;;;;;;5114503;28;20040;-58
2022/06/30 15:00:08;;;;;;;3.78;1.50;;;;;;;;;;5114386;28;20039;-58
2022/06/30 15:02:39;;;;;;;2.85;1.83;;;;;;;;;;5114110;28;20044;-58
2022/06/30 15:05:07;;;;;;;3.33;2.10;;;;;;;;;;5096564;28;20036;-58
2022/06/30 15:07:35;;;;;;;3.38;1.77;;;;;;;;;;5114079;28;20043;-58
2022/06/30 15:10:04;;;;;;;2.40;1.63;;;;;;;;;;5113973;28;20043;-58
2022/06/30 15:12:31;;;;;;;4.43;1.95;;;;;;;;;;5113905;28;20086;-58
2022/06/30 15:14:58;;;;;;;4.13;1.73;;;;;;;;;;5114242;28;20078;-59
2022/06/30 15:17:28;;;;;;;3.65;1.67;;;;;;;;;;5113755;28;20040;-58